CN22 weather

Mercey Hot Springs Airport
Firebaugh, California, United States

Public forecast

Using degrees Fahrenheit for public forecast. Weather courtesy of forecast.io.

Closest aviation weather report (METAR) to Mercey Hot Springs Airport

Closest report is Salinas Municipal Airport, 36.0 nm (66.7 km) W. Retrieved 2019/10/21 07:53 UTC (54 minutes ago):

KSNS 210753Z AUTO 00000KT 10SM CLR 11/07 A3012 RMK AO2 SLP207 T01110072 402330111

Closest aviation forecast (TAF) to Mercey Hot Springs Airport

Closest forecast is Salinas Municipal Airport, 36.0 nm (66.7 km) W. Retrieved 2019/10/21 06:22 UTC (2 hours ago):

TAF KSNS 210520Z 2106/2206 28005KT P6SM SKC FM210800 12004KT P6SM SKC FM211000 12005KT 4SM BR BKN005 FM211700 12005KT P6SM SKC FM212100 30008KT P6SM SKC